Decoded Metar for KEYW (KEY WEST in FL, USA) (IATA:EYW) | Meteo·Mobile Aviation Weather
aviador You're here:

KEYW Decoded Metar

KEY WEST in FL, USA
Report Time2020-02-22 21:53:00
UTC Time2020-02-22 22:25:35
Flight Rules vfr VFR
Wind050° at 12 Gusting to 18 kt
W.Decomp.*RWY 09: 9.7 kt HW 7.1 kt LCW
Visibility9999 m
Phenomena:N/A
Clouds:Broken 075 Hf
Expected CloudBase > 4,000 ft AGL from Temp-Dew spread
Ceiling7,500 ft
Temp24°C (ISA +9)
Dew Point14°C (54% RH)
AAT21.0°C
QNH1020 hPa
Density Alt1,043 ft
Elevation16 ft
Report Wrong Elevation
Raw Report
METAR KEYW 222153Z 05012G18KT 10SM BKN075 24/14 A3011 RMK AO2 SLP197
T02390144=

Extra information for KEYW:More info

Metar Taf Metar & Taf Last 4 Metars F.Rules Stats Wind Profile Meteogram Temp Stats Airport Information Weather charts Add Link Nearby VenuesMetar ALERT Operation Metar Decoded Social comments

AIRNAV info for KEYW